Time;durP1;ratioP1;P1;durP2;ratioP2;P2;SDS_P1;SDS_P2;PMS_P1;PMS_P2;Temp;Humidity;BMP_temperature;BMP_pressure;BME280_temperature;BME280_humidity;BME280_pressure;Samples;Min_cycle;Max_cycle;Signal;HPM_P1;HPM_P2
2022/01/14 00:01:29;;;;;;;21.20;11.20;;;;;;;5.50;100.00;100157.66;4289771;81;28550;-79
2022/01/14 00:07:30;;;;;;;25.50;11.22;;;;;;;5.22;100.00;100168.20;4289213;81;28511;-77
2022/01/14 00:19:45;;;;;;;24.05;11.22;;;;;;;5.23;100.00;100168.53;4281881;81;28507;-78
2022/01/14 00:32:16;;;;;;;25.17;11.70;;;;;;;5.13;100.00;100156.73;4256240;82;28541;-79
2022/01/14 00:38:14;;;;;;;24.02;10.88;;;;;;;5.18;100.00;100140.71;4257132;82;28594;-79
2022/01/14 00:44:16;;;;;;;24.23;11.53;;;;;;;5.18;100.00;100151.38;4254721;83;28511;-79
2022/01/14 00:50:19;;;;;;;24.37;11.78;;;;;;;5.15;100.00;100148.54;4255766;82;28475;-80
2022/01/14 01:02:25;;;;;;;26.57;12.82;;;;;;;5.18;100.00;100188.22;4258635;82;28572;-79
2022/01/14 01:08:28;;;;;;;24.60;12.23;;;;;;;4.94;100.00;100171.72;4255936;82;28542;-79
2022/01/14 01:14:39;;;;;;;26.27;13.20;;;;;;;5.16;100.00;100187.56;4256734;82;28522;-79
2022/01/14 01:20:32;;;;;;;27.62;12.15;;;;;;;5.13;100.00;100146.06;4249423;82;28538;-77
2022/01/14 01:26:35;;;;;;;24.47;12.10;;;;;;;5.14;100.00;100127.73;4245715;82;28528;-78
2022/01/14 01:32:37;;;;;;;25.12;12.47;;;;;;;5.26;100.00;100124.22;4255572;82;28509;-79
2022/01/14 01:38:38;;;;;;;26.87;12.20;;;;;;;5.14;100.00;100117.55;4252770;82;28545;-77
2022/01/14 01:44:40;;;;;;;22.05;11.40;;;;;;;4.84;100.00;100127.89;4253075;82;28530;-78
2022/01/14 01:50:42;;;;;;;28.25;12.95;;;;;;;4.91;100.00;100130.23;4240707;82;28546;-78
2022/01/14 01:56:44;;;;;;;25.25;12.45;;;;;;;4.86;100.00;100138.73;4256282;82;28505;-77
2022/01/14 02:02:48;;;;;;;31.48;12.28;;;;;;;4.87;100.00;100160.38;4257287;82;28446;-77
2022/01/14 02:08:51;;;;;;;29.15;12.98;;;;;;;4.95;100.00;100164.05;4255037;82;28519;-76
2022/01/14 02:15:08;;;;;;;26.20;12.55;;;;;;;4.96;100.00;100154.57;4249871;82;28546;-76
2022/01/14 02:27:20;;;;;;;31.95;14.60;;;;;;;4.83;100.00;100111.58;4255117;82;28604;-78
2022/01/14 02:33:22;;;;;;;31.15;14.25;;;;;;;4.87;100.00;100101.75;4266246;82;28540;-78
2022/01/14 02:39:24;;;;;;;23.90;12.60;;;;;;;4.86;100.00;100090.77;4267653;82;28458;-78
2022/01/14 02:45:31;;;;;;;27.85;13.80;;;;;;;4.69;100.00;100088.61;4265491;81;28533;-78
2022/01/14 02:51:32;;;;;;;27.27;13.25;;;;;;;4.81;100.00;100085.13;4267068;82;28522;-79
2022/01/14 02:57:33;;;;;;;28.02;13.48;;;;;;;4.84;100.00;100083.93;4268300;81;28479;-78
2022/01/14 03:03:36;;;;;;;28.02;14.33;;;;;;;4.82;100.00;100080.12;4267373;82;28499;-78
2022/01/14 03:09:38;;;;;;;29.50;14.07;;;;;;;4.69;100.00;100077.95;4285258;82;28523;-79
2022/01/14 03:15:40;;;;;;;29.98;14.50;;;;;;;4.80;100.00;100068.80;4268347;81;28551;-79
2022/01/14 03:21:42;;;;;;;27.82;13.30;;;;;;;4.74;100.00;100076.12;4269524;81;28518;-78
2022/01/14 03:27:44;;;;;;;22.80;13.13;;;;;;;4.67;100.00;100060.47;4262085;81;28525;-79
2022/01/14 03:33:45;;;;;;;26.62;13.32;;;;;;;4.62;100.00;100075.61;4267635;81;28541;-80
2022/01/14 03:39:47;;;;;;;30.72;14.93;;;;;;;4.62;100.00;100072.95;4265327;82;28558;-78
2022/01/14 03:45:50;;;;;;;28.23;14.03;;;;;;;4.59;100.00;100063.97;4268510;81;28538;-77
2022/01/14 03:51:51;;;;;;;24.25;12.15;;;;;;;4.53;100.00;100050.82;4253758;81;28521;-76
2022/01/14 03:57:52;;;;;;;28.95;14.23;;;;;;;4.53;100.00;100052.16;4267417;82;28513;-75
2022/01/14 04:03:53;;;;;;;28.17;13.30;;;;;;;4.63;100.00;100027.18;4267758;82;28510;-75
2022/01/14 04:09:55;;;;;;;26.48;13.08;;;;;;;4.45;100.00;100057.47;4270423;82;28548;-75
2022/01/14 04:15:56;;;;;;;23.98;13.20;;;;;;;4.53;100.00;100028.67;4267278;82;28486;-76
2022/01/14 04:21:57;;;;;;;27.87;14.03;;;;;;;4.48;100.00;100016.37;4251776;82;28527;-73
2022/01/14 04:28:00;;;;;;;25.90;13.58;;;;;;;4.40;100.00;100006.04;4268228;82;28542;-74
2022/01/14 04:34:01;;;;;;;25.43;12.98;;;;;;;4.55;100.00;99999.55;4302133;81;28518;-73
2022/01/14 04:40:05;;;;;;;26.80;13.83;;;;;;;4.72;100.00;100009.67;4293980;81;28549;-73
2022/01/14 04:52:08;;;;;;;22.87;12.95;;;;;;;4.45;100.00;99995.73;4284464;81;28506;-75
2022/01/14 04:58:11;;;;;;;28.40;14.85;;;;;;;4.51;100.00;99976.92;4266518;82;28538;-74
2022/01/14 05:04:12;;;;;;;28.85;14.20;;;;;;;4.58;100.00;99976.59;4274553;82;28513;-74
2022/01/14 05:16:27;;;;;;;35.05;16.27;;;;;;;4.40;100.00;99966.09;4273026;82;28459;-73
2022/01/14 05:22:28;;;;;;;28.20;14.60;;;;;;;4.70;100.00;99964.24;4273793;81;28567;-73
2022/01/14 05:28:29;;;;;;;30.15;15.63;;;;;;;4.51;100.00;99966.27;4251377;81;28523;-75
2022/01/14 05:34:34;;;;;;;31.77;16.23;;;;;;;4.25;100.00;99951.81;4270274;82;28495;-77
2022/01/14 05:40:35;;;;;;;33.40;16.27;;;;;;;4.45;100.00;99954.94;4278104;81;28496;-75
2022/01/14 05:46:36;;;;;;;33.55;16.30;;;;;;;4.34;100.00;99928.18;4287512;81;28528;-74
2022/01/14 05:52:39;;;;;;;28.52;14.93;;;;;;;4.21;100.00;99931.83;4293535;81;28489;-76
2022/01/14 05:58:40;;;;;;;39.27;18.45;;;;;;;4.24;100.00;99928.86;4307500;81;28514;-76
2022/01/14 06:04:43;;;;;;;30.68;15.43;;;;;;;4.32;100.00;99923.50;4294997;81;28527;-77
2022/01/14 06:10:44;;;;;;;31.80;16.12;;;;;;;4.17;100.00;99909.55;4252444;82;28512;-76
2022/01/14 06:16:46;;;;;;;38.02;17.82;;;;;;;4.29;100.00;99903.39;4254358;82;28476;-73
2022/01/14 06:22:47;;;;;;;38.98;17.90;;;;;;;4.30;100.00;99903.72;4242694;83;28605;-74
2022/01/14 06:28:48;;;;;;;32.73;15.70;;;;;;;4.16;100.00;99901.72;4235629;82;28582;-73
2022/01/14 06:34:50;;;;;;;31.25;15.68;;;;;;;4.32;100.00;99906.19;4304700;81;28520;-75
2022/01/14 06:40:51;;;;;;;27.67;14.15;;;;;;;4.38;100.00;99909.52;4238952;82;28552;-72
2022/01/14 06:46:52;;;;;;;28.47;13.45;;;;;;;4.44;100.00;99930.16;4249285;82;28574;-73
2022/01/14 06:52:53;;;;;;;25.72;13.20;;;;;;;4.32;100.00;99936.81;4281634;81;28517;-74
2022/01/14 06:58:55;;;;;;;27.93;14.23;;;;;;;4.28;100.00;99924.84;4297468;81;28472;-73
2022/01/14 07:04:56;;;;;;;26.82;14.00;;;;;;;4.33;100.00;99918.02;4298267;81;28533;-76
2022/01/14 07:10:57;;;;;;;30.48;14.90;;;;;;;4.13;100.00;99934.00;4259946;82;28499;-76
2022/01/14 07:16:58;;;;;;;27.87;13.40;;;;;;;4.27;100.00;99920.52;4250303;82;28526;-75
2022/01/14 07:23:00;;;;;;;31.70;15.00;;;;;;;4.28;100.00;99937.67;4250666;83;28550;-76
2022/01/14 07:29:01;;;;;;;33.13;14.98;;;;;;;4.37;100.00;99939.81;4212857;82;28509;-76
2022/01/14 07:35:05;;;;;;;31.50;15.30;;;;;;;4.44;100.00;99927.98;4148197;83;28564;-75
2022/01/14 07:41:07;;;;;;;31.23;14.73;;;;;;;4.41;100.00;99931.81;4219566;82;28531;-76
2022/01/14 07:47:08;;;;;;;31.60;14.98;;;;;;;4.27;100.00;99935.17;4198580;83;28505;-76
2022/01/14 07:53:10;;;;;;;38.05;17.70;;;;;;;4.07;100.00;99944.00;4164686;84;28534;-75
2022/01/14 07:59:14;;;;;;;33.40;15.38;;;;;;;4.10;100.00;99933.83;4164497;84;28454;-76
2022/01/14 08:05:16;;;;;;;26.73;13.83;;;;;;;4.25;100.00;99922.02;4165385;84;28548;-79
2022/01/14 08:11:17;;;;;;;30.08;14.15;;;;;;;4.34;100.00;99938.83;4161789;84;28537;-74
2022/01/14 08:17:20;;;;;;;32.17;14.70;;;;;;;4.23;100.00;99929.86;4163415;84;28528;-74
2022/01/14 08:23:22;;;;;;;32.05;15.50;;;;;;;4.19;100.00;99921.38;4162477;84;28511;-77
2022/01/14 08:29:23;;;;;;;34.35;16.17;;;;;;;4.30;100.00;99917.52;4162947;84;28547;-77
2022/01/14 08:35:25;;;;;;;30.20;15.58;;;;;;;4.35;100.00;99904.55;4250446;82;28527;-77
2022/01/14 08:41:30;;;;;;;32.80;16.12;;;;;;;4.27;100.00;99888.58;4251967;82;28507;-76
2022/01/14 08:47:30;;;;;;;32.23;15.08;;;;;;;4.16;100.00;99858.65;4256510;82;28506;-76
2022/01/14 08:53:31;;;;;;;29.85;14.90;;;;;;;4.32;100.00;99838.30;4255859;82;28506;-75
2022/01/14 08:59:36;;;;;;;28.90;13.68;;;;;;;4.08;100.00;99836.55;4260542;82;28574;-78
2022/01/14 09:05:38;;;;;;;24.95;12.20;;;;;;;4.05;100.00;99827.06;4254586;82;28542;-77
2022/01/14 09:11:40;;;;;;;23.90;11.55;;;;;;;4.46;100.00;99853.59;4256913;82;28533;-89
2022/01/14 09:17:41;;;;;;;23.20;11.33;;;;;;;4.48;100.00;99844.11;4260166;82;28529;-83
2022/01/14 09:23:52;;;;;;;21.90;10.85;;;;;;;4.70;100.00;99848.36;4250920;82;28459;-83
2022/01/14 09:29:49;;;;;;;21.37;11.00;;;;;;;4.66;100.00;99822.56;4256634;82;28470;-83
2022/01/14 09:35:52;;;;;;;21.33;10.95;;;;;;;4.55;100.00;99814.95;4275708;82;28557;-86
2022/01/14 09:41:54;;;;;;;22.27;10.82;;;;;;;4.57;100.00;99799.62;4272323;83;28483;-86
2022/01/14 09:47:56;;;;;;;24.00;11.20;;;;;;;4.58;100.00;99798.14;4271836;82;28556;-77
2022/01/14 09:53:58;;;;;;;22.48;11.57;;;;;;;4.69;100.00;99790.25;4269391;81;28531;-74
2022/01/14 09:59:59;;;;;;;25.02;11.30;;;;;;;4.69;100.00;99788.91;4269858;82;28467;-81
2022/01/14 10:06:00;;;;;;;24.18;11.10;;;;;;;4.71;100.00;99766.92;4269855;81;28520;-84
2022/01/14 10:12:20;;;;;;;26.55;12.53;;;;;;;4.52;100.00;99745.55;4271419;81;28494;-82
2022/01/14 10:18:21;;;;;;;25.88;12.40;;;;;;;4.77;100.00;99760.58;4273077;81;28505;-84
2022/01/14 10:24:26;;;;;;;26.80;12.00;;;;;;;4.54;100.00;99740.06;4272585;81;28715;-81
2022/01/14 10:30:33;;;;;;;24.87;12.53;;;;;;;4.87;100.00;99743.87;4273482;81;28530;-83
2022/01/14 10:36:34;;;;;;;26.45;12.15;;;;;;;4.69;100.00;99725.50;4242614;82;28529;-78
2022/01/14 10:42:35;;;;;;;26.55;12.50;;;;;;;4.67;100.00;99736.32;4258153;82;28960;-79
2022/01/14 10:48:43;;;;;;;25.02;11.53;;;;;;;5.01;100.00;99733.77;4250251;82;28483;-83
2022/01/14 10:54:52;;;;;;;23.00;11.97;;;;;;;4.87;100.00;99725.21;4261220;81;28611;-80
2022/01/14 11:01:01;;;;;;;25.30;12.20;;;;;;;4.80;100.00;99713.59;4258068;83;28487;-82
2022/01/14 11:07:03;;;;;;;26.37;12.20;;;;;;;5.02;100.00;99704.77;4260063;82;28515;-81
2022/01/14 11:13:08;;;;;;;25.45;12.70;;;;;;;5.02;100.00;99682.11;4249344;82;28533;-80
2022/01/14 11:19:13;;;;;;;23.73;11.88;;;;;;;5.12;100.00;99698.38;4251098;82;28505;-82
2022/01/14 11:25:14;;;;;;;21.10;10.80;;;;;;;4.90;100.00;99654.76;4257401;82;28542;-81
2022/01/14 11:31:35;;;;;;;22.45;11.00;;;;;;;4.94;100.00;99634.20;4255692;83;28527;-82
2022/01/14 11:37:38;;;;;;;25.05;11.25;;;;;;;5.17;100.00;99669.35;4264587;83;28527;-81
2022/01/14 11:43:53;;;;;;;22.32;11.35;;;;;;;5.17;100.00;99664.02;4273663;82;28561;-82
2022/01/14 11:49:58;;;;;;;22.90;11.80;;;;;;;5.33;100.00;99644.38;4292484;82;28515;-83
2022/01/14 11:55:59;;;;;;;25.37;12.20;;;;;;;5.35;100.00;99648.17;4189013;83;28542;-82
2022/01/14 12:02:04;;;;;;;24.65;12.33;;;;;;;5.44;100.00;99628.41;4294929;81;28548;-81
2022/01/14 12:08:11;;;;;;;23.50;11.40;;;;;;;5.54;100.00;99627.64;4270695;81;28502;-81
2022/01/14 12:14:13;;;;;;;22.37;11.63;;;;;;;5.36;100.00;99644.00;4297685;81;28544;-83
2022/01/14 12:20:18;;;;;;;21.40;10.40;;;;;;;5.45;100.00;99604.73;4294609;82;28563;-83
2022/01/14 12:26:20;;;;;;;20.73;10.27;;;;;;;5.68;100.00;99596.64;4305742;81;28570;-81
2022/01/14 12:32:37;;;;;;;22.73;10.82;;;;;;;5.53;100.00;99587.31;4313140;81;28519;-83
2022/01/14 12:38:40;;;;;;;21.15;10.85;;;;;;;5.61;100.00;99592.23;4233540;82;28514;-75
2022/01/14 12:44:45;;;;;;;23.87;10.95;;;;;;;5.27;100.00;99577.10;4237305;83;28504;-74
2022/01/14 12:50:48;;;;;;;20.50;10.65;;;;;;;5.42;100.00;99587.77;4235219;81;28546;-75
2022/01/14 12:56:53;;;;;;;19.73;10.43;;;;;;;5.36;100.00;99601.34;4270783;81;28439;-78
2022/01/14 13:02:55;;;;;;;18.20;9.85;;;;;;;5.68;100.00;99590.49;4283351;81;28563;-78
2022/01/14 13:08:58;;;;;;;22.85;10.60;;;;;;;5.57;100.00;99601.95;4245864;82;28510;-78
2022/01/14 13:15:02;;;;;;;20.27;9.90;;;;;;;5.67;100.00;99616.33;4240197;82;28553;-76
2022/01/14 13:21:04;;;;;;;21.85;10.30;;;;;;;5.85;100.00;99628.48;4237044;82;28620;-75
2022/01/14 13:27:22;;;;;;;24.02;11.97;;;;;;;5.73;100.00;99649.45;4236097;82;28514;-76
2022/01/14 13:33:25;;;;;;;24.55;11.48;;;;;;;5.78;100.00;99661.75;4244887;82;28499;-77
2022/01/14 13:39:27;;;;;;;25.02;11.65;;;;;;;5.67;100.00;99654.17;4226035;82;28501;-77
2022/01/14 13:45:29;;;;;;;23.35;11.43;;;;;;;5.77;100.00;99655.25;4251729;82;28585;-76
2022/01/14 13:51:34;;;;;;;25.37;12.82;;;;;;;5.62;100.00;99676.59;4250049;82;28538;-77
2022/01/14 13:57:33;;;;;;;23.12;11.80;;;;;;;5.50;100.00;99671.70;4265354;82;28519;-76
2022/01/14 14:03:52;;;;;;;24.40;12.15;;;;;;;5.64;100.00;99673.23;4252570;83;28531;-75
2022/01/14 14:10:22;;;;;;;24.35;11.85;;;;;;;5.57;100.00;99675.80;4247544;82;28511;-77
2022/01/14 14:16:32;;;;;;;22.70;11.57;;;;;;;5.69;100.00;99650.31;4243423;82;28538;-77
2022/01/14 14:22:41;;;;;;;24.65;13.18;;;;;;;5.55;100.00;99661.30;4256935;82;28537;-76
2022/01/14 14:28:43;;;;;;;22.52;11.73;;;;;;;5.60;100.00;99658.09;4285081;81;28530;-78
2022/01/14 14:34:44;;;;;;;21.33;10.55;;;;;;;5.47;100.00;99644.56;4232556;81;28495;-77
2022/01/14 14:40:51;;;;;;;19.20;10.00;;;;;;;5.47;100.00;99646.74;4170583;84;28510;-78
2022/01/14 14:46:52;;;;;;;19.15;9.93;;;;;;;5.64;100.00;99654.55;4186264;83;28474;-79
2022/01/14 14:52:55;;;;;;;20.20;10.38;;;;;;;5.62;100.00;99639.23;4194866;83;28501;-80
2022/01/14 14:58:56;;;;;;;22.27;11.73;;;;;;;5.58;100.00;99640.95;4127291;85;28454;-72
2022/01/14 15:04:58;;;;;;;22.30;10.55;;;;;;;5.52;100.00;99652.83;4120291;85;28522;-84
2022/01/14 15:11:00;;;;;;;22.52;11.20;;;;;;;5.71;100.00;99646.14;4185616;83;28514;-84
2022/01/14 15:23:05;;;;;;;19.85;10.20;;;;;;;5.52;100.00;99686.17;4183994;83;28462;-84
2022/01/14 15:29:07;;;;;;;19.32;10.98;;;;;;;5.72;100.00;99693.16;4186766;83;28487;-84
2022/01/14 15:35:32;;;;;;;18.23;10.00;;;;;;;5.55;100.00;99697.31;4243841;82;28516;-83
2022/01/14 15:41:34;;;;;;;18.87;10.10;;;;;;;5.61;100.00;99684.27;4089828;85;28531;-82
2022/01/14 15:47:40;;;;;;;19.57;10.65;;;;;;;5.62;100.00;99665.91;4074089;85;28552;-84
2022/01/14 15:53:42;;;;;;;20.05;10.82;;;;;;;5.62;100.00;99694.73;4129895;84;28519;-82
2022/01/14 15:59:43;;;;;;;19.35;10.13;;;;;;;5.46;100.00;99714.92;4121181;85;28490;-87
2022/01/14 16:05:46;;;;;;;17.30;8.90;;;;;;;5.51;100.00;99701.37;4104357;86;28627;-85
2022/01/14 16:11:47;;;;;;;15.72;8.95;;;;;;;5.59;100.00;99699.12;4125419;86;28528;-84
2022/01/14 16:17:49;;;;;;;18.27;9.35;;;;;;;5.56;100.00;99716.30;4117493;84;28495;-84
2022/01/14 16:23:52;;;;;;;15.00;8.60;;;;;;;5.60;100.00;99705.30;4124057;86;28566;-86
2022/01/14 16:29:57;;;;;;;16.17;7.87;;;;;;;5.63;100.00;99700.42;4123063;85;28550;-84
2022/01/14 16:36:01;;;;;;;14.45;7.92;;;;;;;5.58;100.00;99711.64;4145991;82;28624;-85
2022/01/14 16:42:06;;;;;;;16.27;7.87;;;;;;;5.63;100.00;99712.92;4133490;86;28510;-84
2022/01/14 16:48:08;;;;;;;13.88;7.35;;;;;;;5.47;100.00;99733.91;4033946;86;28996;-82
2022/01/14 16:54:09;;;;;;;16.85;7.95;;;;;;;5.56;100.00;99730.98;4060589;86;28546;-83
2022/01/14 17:00:17;;;;;;;15.13;7.65;;;;;;;5.76;100.00;99730.98;4079363;86;28522;-86
2022/01/14 17:06:20;;;;;;;14.18;7.47;;;;;;;5.67;100.00;99720.88;4149612;84;28535;-83
2022/01/14 17:12:25;;;;;;;13.83;6.60;;;;;;;5.67;100.00;99735.06;4144633;84;28488;-85
2022/01/14 17:18:26;;;;;;;14.05;7.28;;;;;;;5.82;100.00;99736.91;4154520;84;28573;-84
2022/01/14 17:24:28;;;;;;;17.25;9.25;;;;;;;5.85;100.00;99732.55;4141413;84;28580;-81
2022/01/14 17:30:29;;;;;;;17.50;9.58;;;;;;;5.96;100.00;99740.59;4142051;84;28640;-80
2022/01/14 17:36:31;;;;;;;17.23;10.10;;;;;;;5.84;100.00;99736.23;4161615;84;28592;-81
2022/01/14 17:42:32;;;;;;;19.70;9.95;;;;;;;6.06;100.00;99745.19;4075869;86;28605;-79
2022/01/14 17:48:33;;;;;;;16.40;8.60;;;;;;;5.94;100.00;99745.30;4093339;85;28501;-84
2022/01/14 17:54:35;;;;;;;17.25;8.60;;;;;;;6.01;100.00;99731.55;4078043;85;28522;-83
2022/01/14 18:00:37;;;;;;;15.85;8.55;;;;;;;5.96;100.00;99729.43;4040113;87;28931;-78
2022/01/14 18:06:40;;;;;;;16.95;8.73;;;;;;;5.91;100.00;99748.34;4101403;84;28545;-81
2022/01/14 18:18:48;;;;;;;20.65;10.45;;;;;;;5.83;100.00;99738.55;4091503;85;28514;-81
2022/01/14 18:24:49;;;;;;;17.62;9.90;;;;;;;5.79;100.00;99741.28;4080985;86;28545;-80
2022/01/14 18:30:51;;;;;;;17.55;9.60;;;;;;;5.72;100.00;99754.52;4046711;86;28576;-78
2022/01/14 18:36:52;;;;;;;17.70;9.68;;;;;;;5.53;100.00;99754.02;4126414;83;28508;-76
2022/01/14 18:42:53;;;;;;;15.68;8.53;;;;;;;5.74;100.00;99737.01;4027698;86;28528;-79
2022/01/14 18:48:58;;;;;;;14.13;7.70;;;;;;;5.67;100.00;99736.88;4102238;86;28681;-79
2022/01/14 18:55:00;;;;;;;12.65;6.65;;;;;;;5.90;100.00;99758.17;4090399;87;28544;-77
2022/01/14 19:01:01;;;;;;;14.05;7.40;;;;;;;5.76;100.00;99754.47;4092368;85;28485;-82
2022/01/14 19:07:04;;;;;;;15.28;7.53;;;;;;;5.82;100.00;99761.77;4099248;85;28565;-80
2022/01/14 19:13:06;;;;;;;14.33;7.70;;;;;;;5.83;100.00;99780.77;4063147;87;28575;-79
2022/01/14 19:19:19;;;;;;;11.38;6.58;;;;;;;5.62;100.00;99795.30;4060749;83;28576;-79
2022/01/14 19:25:16;;;;;;;11.88;6.55;;;;;;;5.59;100.00;99789.81;4031069;86;28534;-79
2022/01/14 19:31:20;;;;;;;10.68;6.08;;;;;;;5.41;100.00;99784.28;4100752;85;28491;-82
2022/01/14 19:37:21;;;;;;;11.93;5.78;;;;;;;5.53;100.00;99779.36;4095168;87;28575;-84
2022/01/14 19:43:23;;;;;;;13.38;6.80;;;;;;;5.43;100.00;99798.30;4070037;85;28545;-80
2022/01/14 19:49:26;;;;;;;12.90;6.35;;;;;;;5.27;100.00;99821.91;4134803;84;28508;-78
2022/01/14 19:55:28;;;;;;;10.95;5.65;;;;;;;4.83;100.00;99837.12;4171605;84;28566;-78
2022/01/14 20:01:29;;;;;;;12.45;5.35;;;;;;;4.81;100.00;99860.45;4140207;86;28475;-79
2022/01/14 20:07:31;;;;;;;8.90;3.62;;;;;;;4.78;100.00;99858.15;4134350;84;28492;-79
2022/01/14 20:13:33;;;;;;;10.65;3.95;;;;;;;4.74;100.00;99869.16;4149769;84;28514;-81
2022/01/14 20:19:35;;;;;;;10.72;3.95;;;;;;;4.88;100.00;99876.91;4155498;84;28496;-79
2022/01/14 20:25:37;;;;;;;12.55;4.53;;;;;;;5.05;100.00;99871.51;4173376;84;28449;-79
2022/01/14 20:31:38;;;;;;;12.68;4.85;;;;;;;5.07;100.00;99878.83;4171963;83;28539;-75
2022/01/14 20:37:40;;;;;;;11.63;4.95;;;;;;;5.03;100.00;99882.86;4143812;84;28522;-82
2022/01/14 20:43:58;;;;;;;14.85;5.50;;;;;;;4.95;100.00;99885.55;4071693;84;28499;-78
2022/01/14 20:49:47;;;;;;;12.70;5.92;;;;;;;5.13;100.00;99890.62;4097901;86;28608;-78
2022/01/14 20:55:48;;;;;;;12.50;6.15;;;;;;;4.97;100.00;99887.05;4053150;86;28551;-83
2022/01/14 21:01:52;;;;;;;14.33;6.17;;;;;;;4.88;100.00;99893.41;4059036;85;28553;-81
2022/01/14 21:07:54;;;;;;;11.43;5.95;;;;;;;5.08;100.00;99891.14;4080291;85;28591;-80
2022/01/14 21:13:56;;;;;;;13.10;6.53;;;;;;;5.15;100.00;99896.12;4124153;84;28534;-80
2022/01/14 21:19:58;;;;;;;17.02;7.58;;;;;;;5.16;100.00;99885.78;4125834;84;28520;-73
2022/01/14 21:26:01;;;;;;;13.83;6.78;;;;;;;5.08;100.00;99895.14;4063100;85;28548;-77
2022/01/14 21:32:04;;;;;;;12.43;5.83;;;;;;;5.03;100.00;99908.17;4028240;86;28532;-77
2022/01/14 21:38:06;;;;;;;15.93;5.92;;;;;;;4.84;100.00;99920.05;4118288;85;28601;-75
2022/01/14 21:44:07;;;;;;;13.18;5.75;;;;;;;4.92;100.00;99922.70;4041574;86;28525;-72
2022/01/14 21:50:10;;;;;;;15.58;5.03;;;;;;;4.96;100.00;99932.52;4113431;85;28545;-75
2022/01/14 21:56:11;;;;;;;12.75;4.72;;;;;;;4.90;100.00;99926.56;4112054;85;28528;-76
2022/01/14 22:02:13;;;;;;;11.35;4.30;;;;;;;4.81;100.00;99933.73;4108813;85;28586;-74
2022/01/14 22:08:14;;;;;;;9.70;4.00;;;;;;;4.66;100.00;99926.45;4117211;85;28562;-75
2022/01/14 22:14:28;;;;;;;11.88;4.00;;;;;;;4.70;100.00;99930.42;4118005;85;28547;-76
2022/01/14 22:20:24;;;;;;;12.33;4.33;;;;;;;4.68;100.00;99941.76;4114063;85;28606;-77
2022/01/14 22:26:25;;;;;;;15.30;5.20;;;;;;;4.50;100.00;99939.31;4114621;85;28593;-78
2022/01/14 22:32:26;;;;;;;11.97;4.42;;;;;;;4.26;100.00;99945.48;4091862;85;28528;-76
2022/01/14 22:38:29;;;;;;;15.30;5.28;;;;;;;4.07;100.00;99938.68;4126065;85;28537;-78
2022/01/14 22:44:30;;;;;;;12.50;4.72;;;;;;;4.14;100.00;99947.16;4133822;84;28536;-78
2022/01/14 22:50:32;;;;;;;14.93;4.85;;;;;;;4.09;100.00;99942.81;4124899;84;28492;-77
2022/01/14 22:56:34;;;;;;;12.98;4.67;;;;;;;3.92;100.00;99949.15;4129084;85;28533;-76
2022/01/14 23:02:36;;;;;;;12.88;4.58;;;;;;;3.94;100.00;99948.48;4127429;84;28556;-78
2022/01/14 23:08:38;;;;;;;14.50;4.65;;;;;;;4.01;100.00;99954.78;4128961;85;28525;-76
2022/01/14 23:14:39;;;;;;;12.95;4.60;;;;;;;4.00;100.00;99958.45;4128063;85;28474;-75
2022/01/14 23:20:41;;;;;;;12.35;4.40;;;;;;;3.62;100.00;99957.08;4128760;84;28544;-75
2022/01/14 23:26:42;;;;;;;13.60;4.83;;;;;;;3.82;100.00;99966.58;4121927;84;28588;-75
2022/01/14 23:32:43;;;;;;;14.98;5.00;;;;;;;3.73;100.00;99967.08;4121243;84;28543;-75
2022/01/14 23:38:45;;;;;;;13.75;5.00;;;;;;;3.71;100.00;99963.23;4116266;84;28536;-76
2022/01/14 23:45:07;;;;;;;14.85;5.28;;;;;;;3.67;100.00;99965.05;4130237;84;28554;-77
2022/01/14 23:50:49;;;;;;;17.75;5.87;;;;;;;3.57;100.00;99966.55;4079796;85;28495;-76
2022/01/14 23:56:53;;;;;;;15.40;5.20;;;;;;;3.46;100.00;99966.33;4087603;85;28611;-76
